sensor_id;sensor_type;location;lat;lon;timestamp;temperature;humidity
64888;DHT22;51386;53.082;8.816;2022-12-11T00:00:14;3.00;67.70
64888;DHT22;51386;53.082;8.816;2022-12-11T00:02:42;3.10;67.50
64888;DHT22;51386;53.082;8.816;2022-12-11T00:05:10;3.10;67.30
64888;DHT22;51386;53.082;8.816;2022-12-11T00:07:38;3.10;66.90
64888;DHT22;51386;53.082;8.816;2022-12-11T00:10:06;3.10;67.00
64888;DHT22;51386;53.082;8.816;2022-12-11T00:12:33;3.10;67.30
64888;DHT22;51386;53.082;8.816;2022-12-11T00:15:00;3.20;67.30
64888;DHT22;51386;53.082;8.816;2022-12-11T00:17:27;3.20;66.90
64888;DHT22;51386;53.082;8.816;2022-12-11T00:19:56;3.20;66.70
64888;DHT22;51386;53.082;8.816;2022-12-11T00:22:23;3.20;66.90
64888;DHT22;51386;53.082;8.816;2022-12-11T00:24:50;3.20;67.00
64888;DHT22;51386;53.082;8.816;2022-12-11T00:27:17;3.20;67.00
64888;DHT22;51386;53.082;8.816;2022-12-11T00:29:44;3.10;66.50
64888;DHT22;51386;53.082;8.816;2022-12-11T00:32:11;3.10;66.60
64888;DHT22;51386;53.082;8.816;2022-12-11T00:34:38;3.10;66.90
64888;DHT22;51386;53.082;8.816;2022-12-11T00:37:07;3.10;67.20
64888;DHT22;51386;53.082;8.816;2022-12-11T00:39:35;3.00;66.90
64888;DHT22;51386;53.082;8.816;2022-12-11T00:42:03;3.00;67.00
64888;DHT22;51386;53.082;8.816;2022-12-11T00:44:30;3.00;67.20
64888;DHT22;51386;53.082;8.816;2022-12-11T00:46:57;3.00;67.50
64888;DHT22;51386;53.082;8.816;2022-12-11T00:49:24;3.00;67.70
64888;DHT22;51386;53.082;8.816;2022-12-11T00:51:51;3.10;68.10
64888;DHT22;51386;53.082;8.816;2022-12-11T00:54:19;3.10;68.00
64888;DHT22;51386;53.082;8.816;2022-12-11T00:56:46;3.10;68.00
64888;DHT22;51386;53.082;8.816;2022-12-11T00:59:13;3.20;68.10
64888;DHT22;51386;53.082;8.816;2022-12-11T01:01:41;3.30;68.00
64888;DHT22;51386;53.082;8.816;2022-12-11T01:04:08;3.30;67.00
64888;DHT22;51386;53.082;8.816;2022-12-11T01:06:35;3.40;66.60
64888;DHT22;51386;53.082;8.816;2022-12-11T01:09:02;3.30;66.40
64888;DHT22;51386;53.082;8.816;2022-12-11T01:11:50;3.30;66.60
64888;DHT22;51386;53.082;8.816;2022-12-11T01:14:17;3.20;66.80
64888;DHT22;51386;53.082;8.816;2022-12-11T01:16:45;3.10;66.90
64888;DHT22;51386;53.082;8.816;2022-12-11T01:19:12;3.10;67.40
64888;DHT22;51386;53.082;8.816;2022-12-11T01:21:39;3.10;67.30
64888;DHT22;51386;53.082;8.816;2022-12-11T01:24:06;3.20;67.80
64888;DHT22;51386;53.082;8.816;2022-12-11T01:26:35;3.20;67.90
64888;DHT22;51386;53.082;8.816;2022-12-11T01:29:03;3.20;67.70
64888;DHT22;51386;53.082;8.816;2022-12-11T01:31:30;3.30;67.20
64888;DHT22;51386;53.082;8.816;2022-12-11T01:33:58;3.30;67.00
64888;DHT22;51386;53.082;8.816;2022-12-11T01:36:25;3.30;66.80
64888;DHT22;51386;53.082;8.816;2022-12-11T01:38:52;3.20;66.90
64888;DHT22;51386;53.082;8.816;2022-12-11T01:41:21;3.20;67.40
64888;DHT22;51386;53.082;8.816;2022-12-11T01:43:59;3.20;66.80
64888;DHT22;51386;53.082;8.816;2022-12-11T01:46:31;3.20;66.80
64888;DHT22;51386;53.082;8.816;2022-12-11T01:49:02;3.20;66.90
64888;DHT22;51386;53.082;8.816;2022-12-11T01:51:36;3.10;66.80
64888;DHT22;51386;53.082;8.816;2022-12-11T01:54:09;3.10;66.80
64888;DHT22;51386;53.082;8.816;2022-12-11T01:56:40;3.00;67.10
64888;DHT22;51386;53.082;8.816;2022-12-11T01:59:10;3.00;67.50
64888;DHT22;51386;53.082;8.816;2022-12-11T02:01:45;3.10;67.50
64888;DHT22;51386;53.082;8.816;2022-12-11T02:04:17;3.10;67.50
64888;DHT22;51386;53.082;8.816;2022-12-11T02:06:47;3.10;67.30
64888;DHT22;51386;53.082;8.816;2022-12-11T02:09:18;3.10;67.80
64888;DHT22;51386;53.082;8.816;2022-12-11T02:11:54;3.10;67.20
64888;DHT22;51386;53.082;8.816;2022-12-11T02:14:33;3.00;67.40
64888;DHT22;51386;53.082;8.816;2022-12-11T02:17:11;3.00;67.70
64888;DHT22;51386;53.082;8.816;2022-12-11T02:19:51;3.00;67.70
64888;DHT22;51386;53.082;8.816;2022-12-11T02:22:48;3.00;67.90
64888;DHT22;51386;53.082;8.816;2022-12-11T02:25:37;3.00;68.20
64888;DHT22;51386;53.082;8.816;2022-12-11T02:28:17;2.90;68.30
64888;DHT22;51386;53.082;8.816;2022-12-11T02:30:50;2.90;68.40
64888;DHT22;51386;53.082;8.816;2022-12-11T02:33:24;2.80;68.60
64888;DHT22;51386;53.082;8.816;2022-12-11T02:35:58;2.80;68.60
64888;DHT22;51386;53.082;8.816;2022-12-11T02:38:31;2.80;69.10
64888;DHT22;51386;53.082;8.816;2022-12-11T02:41:02;2.80;69.30
64888;DHT22;51386;53.082;8.816;2022-12-11T02:43:33;2.80;69.30
64888;DHT22;51386;53.082;8.816;2022-12-11T02:46:03;2.80;69.40
64888;DHT22;51386;53.082;8.816;2022-12-11T02:48:34;2.80;69.20
64888;DHT22;51386;53.082;8.816;2022-12-11T02:51:04;2.90;69.10
64888;DHT22;51386;53.082;8.816;2022-12-11T02:53:36;2.90;68.80
64888;DHT22;51386;53.082;8.816;2022-12-11T02:56:10;2.90;68.80
64888;DHT22;51386;53.082;8.816;2022-12-11T02:58:45;2.90;69.10
64888;DHT22;51386;53.082;8.816;2022-12-11T03:01:21;3.00;68.30
64888;DHT22;51386;53.082;8.816;2022-12-11T03:03:48;2.90;67.70
64888;DHT22;51386;53.082;8.816;2022-12-11T03:06:17;3.00;67.80
64888;DHT22;51386;53.082;8.816;2022-12-11T03:08:47;2.90;67.70
64888;DHT22;51386;53.082;8.816;2022-12-11T03:11:17;2.90;67.70
64888;DHT22;51386;53.082;8.816;2022-12-11T03:13:45;2.90;67.90
64888;DHT22;51386;53.082;8.816;2022-12-11T03:16:16;2.80;67.90
64888;DHT22;51386;53.082;8.816;2022-12-11T03:18:57;2.80;68.20
64888;DHT22;51386;53.082;8.816;2022-12-11T03:21:34;2.80;68.70
64888;DHT22;51386;53.082;8.816;2022-12-11T03:24:13;2.90;69.00
64888;DHT22;51386;53.082;8.816;2022-12-11T03:26:48;3.00;68.70
64888;DHT22;51386;53.082;8.816;2022-12-11T03:29:29;3.00;68.10
64888;DHT22;51386;53.082;8.816;2022-12-11T03:32:04;3.00;68.10
64888;DHT22;51386;53.082;8.816;2022-12-11T03:34:39;3.10;68.00
64888;DHT22;51386;53.082;8.816;2022-12-11T03:37:12;3.00;67.60
64888;DHT22;51386;53.082;8.816;2022-12-11T03:39:43;3.10;68.00
64888;DHT22;51386;53.082;8.816;2022-12-11T03:42:15;3.00;67.70
64888;DHT22;51386;53.082;8.816;2022-12-11T03:44:47;3.00;67.70
64888;DHT22;51386;53.082;8.816;2022-12-11T03:47:19;3.00;67.90
64888;DHT22;51386;53.082;8.816;2022-12-11T03:49:51;3.00;68.10
64888;DHT22;51386;53.082;8.816;2022-12-11T03:52:20;3.00;68.20
64888;DHT22;51386;53.082;8.816;2022-12-11T03:54:49;2.90;67.90
64888;DHT22;51386;53.082;8.816;2022-12-11T03:57:19;3.00;68.20
64888;DHT22;51386;53.082;8.816;2022-12-11T03:59:52;3.00;67.90
64888;DHT22;51386;53.082;8.816;2022-12-11T04:02:19;2.90;67.70
64888;DHT22;51386;53.082;8.816;2022-12-11T04:04:46;2.90;67.60
64888;DHT22;51386;53.082;8.816;2022-12-11T04:07:14;2.80;67.50
64888;DHT22;51386;53.082;8.816;2022-12-11T04:09:41;2.80;67.80
64888;DHT22;51386;53.082;8.816;2022-12-11T04:12:08;2.80;67.80
64888;DHT22;51386;53.082;8.816;2022-12-11T04:14:35;2.80;68.10
64888;DHT22;51386;53.082;8.816;2022-12-11T04:17:22;2.80;68.50
64888;DHT22;51386;53.082;8.816;2022-12-11T04:20:09;2.80;67.60
64888;DHT22;51386;53.082;8.816;2022-12-11T04:22:55;2.90;67.80
64888;DHT22;51386;53.082;8.816;2022-12-11T04:25:41;2.80;67.80
64888;DHT22;51386;53.082;8.816;2022-12-11T04:28:08;2.80;67.70
64888;DHT22;51386;53.082;8.816;2022-12-11T04:30:35;2.80;67.50
64888;DHT22;51386;53.082;8.816;2022-12-11T04:33:03;2.80;67.90
64888;DHT22;51386;53.082;8.816;2022-12-11T04:35:30;2.80;67.80
64888;DHT22;51386;53.082;8.816;2022-12-11T04:37:58;2.80;67.70
64888;DHT22;51386;53.082;8.816;2022-12-11T04:40:25;2.80;67.70
64888;DHT22;51386;53.082;8.816;2022-12-11T04:42:52;2.80;67.70
64888;DHT22;51386;53.082;8.816;2022-12-11T04:45:19;2.80;67.70
64888;DHT22;51386;53.082;8.816;2022-12-11T04:47:46;2.80;67.80
64888;DHT22;51386;53.082;8.816;2022-12-11T04:50:16;2.80;67.80
64888;DHT22;51386;53.082;8.816;2022-12-11T04:52:44;2.80;67.60
64888;DHT22;51386;53.082;8.816;2022-12-11T04:55:11;2.80;67.70
64888;DHT22;51386;53.082;8.816;2022-12-11T04:57:39;2.80;68.00
64888;DHT22;51386;53.082;8.816;2022-12-11T05:00:10;2.80;68.00
64888;DHT22;51386;53.082;8.816;2022-12-11T05:02:40;2.90;68.00
64888;DHT22;51386;53.082;8.816;2022-12-11T05:05:09;2.90;67.70
64888;DHT22;51386;53.082;8.816;2022-12-11T05:07:38;2.90;67.70
64888;DHT22;51386;53.082;8.816;2022-12-11T05:10:08;3.00;67.80
64888;DHT22;51386;53.082;8.816;2022-12-11T05:12:35;2.90;67.50
64888;DHT22;51386;53.082;8.816;2022-12-11T05:15:03;3.00;67.50
64888;DHT22;51386;53.082;8.816;2022-12-11T05:17:30;3.00;67.30
64888;DHT22;51386;53.082;8.816;2022-12-11T05:19:57;2.90;67.30
64888;DHT22;51386;53.082;8.816;2022-12-11T05:22:24;3.00;67.80
64888;DHT22;51386;53.082;8.816;2022-12-11T05:24:52;2.90;67.70
64888;DHT22;51386;53.082;8.816;2022-12-11T05:27:19;3.00;67.80
64888;DHT22;51386;53.082;8.816;2022-12-11T05:29:46;3.00;67.50
64888;DHT22;51386;53.082;8.816;2022-12-11T05:32:13;3.00;67.50
64888;DHT22;51386;53.082;8.816;2022-12-11T05:34:40;3.00;67.40
64888;DHT22;51386;53.082;8.816;2022-12-11T05:37:07;2.90;67.40
64888;DHT22;51386;53.082;8.816;2022-12-11T05:39:34;2.90;67.50
64888;DHT22;51386;53.082;8.816;2022-12-11T05:42:03;2.90;67.60
64888;DHT22;51386;53.082;8.816;2022-12-11T05:44:30;2.90;67.70
64888;DHT22;51386;53.082;8.816;2022-12-11T05:46:57;2.80;67.70
64888;DHT22;51386;53.082;8.816;2022-12-11T05:49:24;2.80;67.70
64888;DHT22;51386;53.082;8.816;2022-12-11T05:51:56;2.80;68.20
64888;DHT22;51386;53.082;8.816;2022-12-11T05:54:23;2.80;68.40
64888;DHT22;51386;53.082;8.816;2022-12-11T05:56:51;2.80;68.10
64888;DHT22;51386;53.082;8.816;2022-12-11T05:59:19;2.80;68.10
64888;DHT22;51386;53.082;8.816;2022-12-11T06:01:46;2.90;68.20
64888;DHT22;51386;53.082;8.816;2022-12-11T06:04:13;2.90;68.20
64888;DHT22;51386;53.082;8.816;2022-12-11T06:06:40;2.90;68.30
64888;DHT22;51386;53.082;8.816;2022-12-11T06:09:12;2.90;68.10
64888;DHT22;51386;53.082;8.816;2022-12-11T06:11:40;2.90;68.40
64888;DHT22;51386;53.082;8.816;2022-12-11T06:14:10;2.90;68.40
64888;DHT22;51386;53.082;8.816;2022-12-11T06:16:38;3.00;68.60
64888;DHT22;51386;53.082;8.816;2022-12-11T06:19:05;3.00;68.20
64888;DHT22;51386;53.082;8.816;2022-12-11T06:21:33;3.00;68.20
64888;DHT22;51386;53.082;8.816;2022-12-11T06:24:01;3.00;68.10
64888;DHT22;51386;53.082;8.816;2022-12-11T06:26:30;3.00;68.10
64888;DHT22;51386;53.082;8.816;2022-12-11T06:28:57;3.00;68.70
64888;DHT22;51386;53.082;8.816;2022-12-11T06:31:24;3.00;68.00
64888;DHT22;51386;53.082;8.816;2022-12-11T06:33:53;3.00;68.10
64888;DHT22;51386;53.082;8.816;2022-12-11T06:36:22;3.00;68.10
64888;DHT22;51386;53.082;8.816;2022-12-11T06:38:50;3.00;67.80
64888;DHT22;51386;53.082;8.816;2022-12-11T06:41:18;2.90;67.50
64888;DHT22;51386;53.082;8.816;2022-12-11T06:43:45;2.80;67.50
64888;DHT22;51386;53.082;8.816;2022-12-11T06:46:14;2.80;68.00
64888;DHT22;51386;53.082;8.816;2022-12-11T06:48:43;2.70;68.50
64888;DHT22;51386;53.082;8.816;2022-12-11T06:51:14;2.70;68.90
64888;DHT22;51386;53.082;8.816;2022-12-11T06:53:42;2.70;69.00
64888;DHT22;51386;53.082;8.816;2022-12-11T06:56:12;2.70;69.10
64888;DHT22;51386;53.082;8.816;2022-12-11T06:58:41;2.60;69.00
64888;DHT22;51386;53.082;8.816;2022-12-11T07:01:17;2.60;69.20
64888;DHT22;51386;53.082;8.816;2022-12-11T07:03:46;2.60;69.50
64888;DHT22;51386;53.082;8.816;2022-12-11T07:06:15;2.60;69.50
64888;DHT22;51386;53.082;8.816;2022-12-11T07:08:42;2.60;69.60
64888;DHT22;51386;53.082;8.816;2022-12-11T07:11:11;2.60;69.60
64888;DHT22;51386;53.082;8.816;2022-12-11T07:13:39;2.60;69.70
64888;DHT22;51386;53.082;8.816;2022-12-11T07:16:09;2.70;69.80
64888;DHT22;51386;53.082;8.816;2022-12-11T07:18:37;2.70;69.70
64888;DHT22;51386;53.082;8.816;2022-12-11T07:21:06;2.70;69.40
64888;DHT22;51386;53.082;8.816;2022-12-11T07:23:36;2.80;69.30
64888;DHT22;51386;53.082;8.816;2022-12-11T07:26:04;2.80;69.30
64888;DHT22;51386;53.082;8.816;2022-12-11T07:28:32;2.80;68.90
64888;DHT22;51386;53.082;8.816;2022-12-11T07:31:04;2.80;69.00
64888;DHT22;51386;53.082;8.816;2022-12-11T07:33:31;2.80;68.90
64888;DHT22;51386;53.082;8.816;2022-12-11T07:36:00;2.80;69.00
64888;DHT22;51386;53.082;8.816;2022-12-11T07:38:28;2.80;68.90
64888;DHT22;51386;53.082;8.816;2022-12-11T07:40:59;2.80;68.60
64888;DHT22;51386;53.082;8.816;2022-12-11T07:43:27;2.80;68.60
64888;DHT22;51386;53.082;8.816;2022-12-11T07:45:54;2.80;68.70
64888;DHT22;51386;53.082;8.816;2022-12-11T07:48:21;2.80;68.60
64888;DHT22;51386;53.082;8.816;2022-12-11T07:50:48;2.80;68.50
64888;DHT22;51386;53.082;8.816;2022-12-11T07:53:15;2.80;68.60
64888;DHT22;51386;53.082;8.816;2022-12-11T07:55:42;2.80;68.70
64888;DHT22;51386;53.082;8.816;2022-12-11T07:58:10;2.70;68.80
64888;DHT22;51386;53.082;8.816;2022-12-11T08:00:37;2.70;69.00
64888;DHT22;51386;53.082;8.816;2022-12-11T08:03:04;2.70;69.10
64888;DHT22;51386;53.082;8.816;2022-12-11T08:05:31;2.70;69.10
64888;DHT22;51386;53.082;8.816;2022-12-11T08:07:58;2.70;68.90
64888;DHT22;51386;53.082;8.816;2022-12-11T08:10:25;2.80;69.10
64888;DHT22;51386;53.082;8.816;2022-12-11T08:12:52;2.80;69.00
64888;DHT22;51386;53.082;8.816;2022-12-11T08:15:20;2.70;68.70
64888;DHT22;51386;53.082;8.816;2022-12-11T08:17:47;2.70;68.70
64888;DHT22;51386;53.082;8.816;2022-12-11T08:20:14;2.70;68.70
64888;DHT22;51386;53.082;8.816;2022-12-11T08:22:41;2.70;69.00
64888;DHT22;51386;53.082;8.816;2022-12-11T08:25:08;2.70;69.20
64888;DHT22;51386;53.082;8.816;2022-12-11T08:27:36;2.80;69.50
64888;DHT22;51386;53.082;8.816;2022-12-11T08:30:03;2.80;68.90
64888;DHT22;51386;53.082;8.816;2022-12-11T08:32:33;2.80;68.60
64888;DHT22;51386;53.082;8.816;2022-12-11T08:35:00;2.80;68.80
64888;DHT22;51386;53.082;8.816;2022-12-11T08:37:27;2.80;69.70
64888;DHT22;51386;53.082;8.816;2022-12-11T08:39:55;2.80;69.20
64888;DHT22;51386;53.082;8.816;2022-12-11T08:42:22;2.90;69.10
64888;DHT22;51386;53.082;8.816;2022-12-11T08:44:49;2.90;68.40
64888;DHT22;51386;53.082;8.816;2022-12-11T08:47:17;2.80;67.90
64888;DHT22;51386;53.082;8.816;2022-12-11T08:49:45;2.80;67.90
64888;DHT22;51386;53.082;8.816;2022-12-11T08:52:12;2.80;68.30
64888;DHT22;51386;53.082;8.816;2022-12-11T08:54:39;2.70;68.50
64888;DHT22;51386;53.082;8.816;2022-12-11T08:57:06;2.70;68.70
64888;DHT22;51386;53.082;8.816;2022-12-11T08:59:33;2.70;68.90
64888;DHT22;51386;53.082;8.816;2022-12-11T09:02:00;2.70;69.00
64888;DHT22;51386;53.082;8.816;2022-12-11T09:04:27;2.80;69.20
64888;DHT22;51386;53.082;8.816;2022-12-11T09:06:56;2.80;69.40
64888;DHT22;51386;53.082;8.816;2022-12-11T09:09:23;2.80;68.90
64888;DHT22;51386;53.082;8.816;2022-12-11T09:11:50;2.90;68.80
64888;DHT22;51386;53.082;8.816;2022-12-11T09:14:17;2.90;68.90
64888;DHT22;51386;53.082;8.816;2022-12-11T09:16:44;2.90;69.10
64888;DHT22;51386;53.082;8.816;2022-12-11T09:19:13;2.90;68.80
64888;DHT22;51386;53.082;8.816;2022-12-11T09:21:41;3.00;68.50
64888;DHT22;51386;53.082;8.816;2022-12-11T09:24:11;3.00;68.50
64888;DHT22;51386;53.082;8.816;2022-12-11T09:26:39;3.00;68.50
64888;DHT22;51386;53.082;8.816;2022-12-11T09:29:06;3.00;68.50
64888;DHT22;51386;53.082;8.816;2022-12-11T09:31:35;2.90;68.60
64888;DHT22;51386;53.082;8.816;2022-12-11T09:34:05;2.90;68.40
64888;DHT22;51386;53.082;8.816;2022-12-11T09:36:34;2.90;68.40
64888;DHT22;51386;53.082;8.816;2022-12-11T09:39:05;2.90;68.50
64888;DHT22;51386;53.082;8.816;2022-12-11T09:41:41;2.80;68.60
64888;DHT22;51386;53.082;8.816;2022-12-11T09:44:18;2.80;68.90
64888;DHT22;51386;53.082;8.816;2022-12-11T09:46:52;2.80;69.30
64888;DHT22;51386;53.082;8.816;2022-12-11T09:49:25;2.80;69.70
64888;DHT22;51386;53.082;8.816;2022-12-11T09:52:04;2.80;69.40
64888;DHT22;51386;53.082;8.816;2022-12-11T09:54:37;2.90;69.40
64888;DHT22;51386;53.082;8.816;2022-12-11T09:57:17;2.90;69.30
64888;DHT22;51386;53.082;8.816;2022-12-11T10:00:02;2.90;69.30
64888;DHT22;51386;53.082;8.816;2022-12-11T10:02:44;3.00;69.40
64888;DHT22;51386;53.082;8.816;2022-12-11T10:05:28;3.00;68.70
64888;DHT22;51386;53.082;8.816;2022-12-11T10:08:08;3.10;68.60
64888;DHT22;51386;53.082;8.816;2022-12-11T10:10:50;3.10;68.60
64888;DHT22;51386;53.082;8.816;2022-12-11T10:13:32;3.10;68.60
64888;DHT22;51386;53.082;8.816;2022-12-11T10:16:11;3.10;68.30
64888;DHT22;51386;53.082;8.816;2022-12-11T10:18:46;3.00;68.00
64888;DHT22;51386;53.082;8.816;2022-12-11T10:21:15;3.00;68.00
64888;DHT22;51386;53.082;8.816;2022-12-11T10:23:49;3.00;68.30
64888;DHT22;51386;53.082;8.816;2022-12-11T10:26:21;3.00;68.30
64888;DHT22;51386;53.082;8.816;2022-12-11T10:28:50;2.90;68.30
64888;DHT22;51386;53.082;8.816;2022-12-11T10:31:18;2.90;68.50
64888;DHT22;51386;53.082;8.816;2022-12-11T10:33:56;2.90;68.60
64888;DHT22;51386;53.082;8.816;2022-12-11T10:36:28;2.90;68.70
64888;DHT22;51386;53.082;8.816;2022-12-11T10:38:57;2.90;68.90
64888;DHT22;51386;53.082;8.816;2022-12-11T10:41:34;2.90;69.20
64888;DHT22;51386;53.082;8.816;2022-12-11T10:44:16;3.00;69.50
64888;DHT22;51386;53.082;8.816;2022-12-11T10:46:45;3.10;69.20
64888;DHT22;51386;53.082;8.816;2022-12-11T10:49:24;3.10;68.70
64888;DHT22;51386;53.082;8.816;2022-12-11T10:51:53;3.10;68.90
64888;DHT22;51386;53.082;8.816;2022-12-11T10:54:32;3.20;68.80
64888;DHT22;51386;53.082;8.816;2022-12-11T10:57:07;3.20;68.10
64888;DHT22;51386;53.082;8.816;2022-12-11T10:59:39;3.20;67.80
64888;DHT22;51386;53.082;8.816;2022-12-11T11:02:18;3.10;68.00
64888;DHT22;51386;53.082;8.816;2022-12-11T11:04:50;3.10;68.10
64888;DHT22;51386;53.082;8.816;2022-12-11T11:07:20;3.10;68.30
64888;DHT22;51386;53.082;8.816;2022-12-11T11:09:50;3.10;68.70
64888;DHT22;51386;53.082;8.816;2022-12-11T11:12:28;3.10;68.60
64888;DHT22;51386;53.082;8.816;2022-12-11T11:15:01;3.10;68.40
64888;DHT22;51386;53.082;8.816;2022-12-11T11:17:31;3.10;68.80
64888;DHT22;51386;53.082;8.816;2022-12-11T11:20:11;3.10;68.70
64888;DHT22;51386;53.082;8.816;2022-12-11T11:22:43;3.20;68.80
64888;DHT22;51386;53.082;8.816;2022-12-11T11:25:18;3.30;68.80
64888;DHT22;51386;53.082;8.816;2022-12-11T11:27:52;3.30;68.60
64888;DHT22;51386;53.082;8.816;2022-12-11T11:30:26;3.30;68.50
64888;DHT22;51386;53.082;8.816;2022-12-11T11:32:57;3.30;68.50
64888;DHT22;51386;53.082;8.816;2022-12-11T11:35:29;3.40;68.60
64888;DHT22;51386;53.082;8.816;2022-12-11T11:38:01;3.40;69.00
64888;DHT22;51386;53.082;8.816;2022-12-11T11:40:36;3.40;69.50
64888;DHT22;51386;53.082;8.816;2022-12-11T11:43:16;3.50;68.50
64888;DHT22;51386;53.082;8.816;2022-12-11T11:45:55;3.50;68.40
64888;DHT22;51386;53.082;8.816;2022-12-11T11:48:32;3.50;67.80
64888;DHT22;51386;53.082;8.816;2022-12-11T11:51:12;3.50;67.80
64888;DHT22;51386;53.082;8.816;2022-12-11T11:53:46;3.50;67.70
64888;DHT22;51386;53.082;8.816;2022-12-11T11:56:21;3.50;67.80
64888;DHT22;51386;53.082;8.816;2022-12-11T11:58:55;3.50;68.00
64888;DHT22;51386;53.082;8.816;2022-12-11T12:01:32;3.50;68.20
64888;DHT22;51386;53.082;8.816;2022-12-11T12:04:02;3.50;68.50
64888;DHT22;51386;53.082;8.816;2022-12-11T12:06:40;3.50;68.50
64888;DHT22;51386;53.082;8.816;2022-12-11T12:09:27;3.50;68.40
64888;DHT22;51386;53.082;8.816;2022-12-11T12:12:09;3.50;68.50
64888;DHT22;51386;53.082;8.816;2022-12-11T12:15:01;3.60;68.50
64888;DHT22;51386;53.082;8.816;2022-12-11T12:17:47;3.60;68.10
64888;DHT22;51386;53.082;8.816;2022-12-11T12:20:37;3.50;67.80
64888;DHT22;51386;53.082;8.816;2022-12-11T12:23:42;3.50;67.80
64888;DHT22;51386;53.082;8.816;2022-12-11T12:26:24;3.50;68.10
64888;DHT22;51386;53.082;8.816;2022-12-11T12:29:03;3.50;68.30
64888;DHT22;51386;53.082;8.816;2022-12-11T12:31:52;3.50;68.30
64888;DHT22;51386;53.082;8.816;2022-12-11T12:34:42;3.50;68.50
64888;DHT22;51386;53.082;8.816;2022-12-11T12:37:26;3.50;68.40
64888;DHT22;51386;53.082;8.816;2022-12-11T12:40:16;3.50;68.50
64888;DHT22;51386;53.082;8.816;2022-12-11T12:42:52;3.50;69.00
64888;DHT22;51386;53.082;8.816;2022-12-11T12:45:37;3.60;68.60
64888;DHT22;51386;53.082;8.816;2022-12-11T12:48:12;3.60;68.50
64888;DHT22;51386;53.082;8.816;2022-12-11T12:50:43;3.60;68.10
64888;DHT22;51386;53.082;8.816;2022-12-11T12:53:17;3.60;68.30
64888;DHT22;51386;53.082;8.816;2022-12-11T12:55:47;3.70;68.30
64888;DHT22;51386;53.082;8.816;2022-12-11T12:58:27;3.70;68.30
64888;DHT22;51386;53.082;8.816;2022-12-11T13:01:08;3.70;68.30
64888;DHT22;51386;53.082;8.816;2022-12-11T13:03:50;3.70;68.50
64888;DHT22;51386;53.082;8.816;2022-12-11T13:06:30;3.70;69.00
64888;DHT22;51386;53.082;8.816;2022-12-11T13:09:16;3.70;68.30
64888;DHT22;51386;53.082;8.816;2022-12-11T13:11:48;3.70;68.30
64888;DHT22;51386;53.082;8.816;2022-12-11T13:14:27;3.80;68.30
64888;DHT22;51386;53.082;8.816;2022-12-11T13:17:07;3.80;68.50
64888;DHT22;51386;53.082;8.816;2022-12-11T13:19:51;3.80;68.50
64888;DHT22;51386;53.082;8.816;2022-12-11T13:22:47;3.90;68.70
64888;DHT22;51386;53.082;8.816;2022-12-11T13:25:20;3.90;68.20
64888;DHT22;51386;53.082;8.816;2022-12-11T13:27:50;3.90;67.90
64888;DHT22;51386;53.082;8.816;2022-12-11T13:30:23;4.00;67.80
64888;DHT22;51386;53.082;8.816;2022-12-11T13:32:59;3.90;67.70
64888;DHT22;51386;53.082;8.816;2022-12-11T13:35:31;3.90;68.00
64888;DHT22;51386;53.082;8.816;2022-12-11T13:38:07;3.80;68.00
64888;DHT22;51386;53.082;8.816;2022-12-11T13:40:43;3.80;68.10
64888;DHT22;51386;53.082;8.816;2022-12-11T13:43:17;3.80;68.20
64888;DHT22;51386;53.082;8.816;2022-12-11T13:45:49;3.80;68.70
64888;DHT22;51386;53.082;8.816;2022-12-11T13:48:21;3.80;68.70
64888;DHT22;51386;53.082;8.816;2022-12-11T13:50:53;3.70;68.60
64888;DHT22;51386;53.082;8.816;2022-12-11T13:53:24;3.70;68.90
64888;DHT22;51386;53.082;8.816;2022-12-11T13:55:56;3.70;68.90
64888;DHT22;51386;53.082;8.816;2022-12-11T13:58:26;3.70;69.10
64888;DHT22;51386;53.082;8.816;2022-12-11T14:01:01;3.60;69.10
64888;DHT22;51386;53.082;8.816;2022-12-11T14:03:32;3.60;69.40
64888;DHT22;51386;53.082;8.816;2022-12-11T14:06:01;3.70;70.00
64888;DHT22;51386;53.082;8.816;2022-12-11T14:08:33;3.70;69.90
64888;DHT22;51386;53.082;8.816;2022-12-11T14:11:03;3.80;69.70
64888;DHT22;51386;53.082;8.816;2022-12-11T14:13:34;3.80;69.40
64888;DHT22;51386;53.082;8.816;2022-12-11T14:16:05;3.80;69.70
64888;DHT22;51386;53.082;8.816;2022-12-11T14:18:34;3.80;69.50
64888;DHT22;51386;53.082;8.816;2022-12-11T14:21:04;3.80;69.70
64888;DHT22;51386;53.082;8.816;2022-12-11T14:23:35;3.90;70.70
64888;DHT22;51386;53.082;8.816;2022-12-11T14:26:17;3.90;70.10
64888;DHT22;51386;53.082;8.816;2022-12-11T14:28:46;4.00;69.90
64888;DHT22;51386;53.082;8.816;2022-12-11T14:31:17;4.10;70.40
64888;DHT22;51386;53.082;8.816;2022-12-11T14:33:54;4.10;69.50
64888;DHT22;51386;53.082;8.816;2022-12-11T14:36:29;4.20;69.30
64888;DHT22;51386;53.082;8.816;2022-12-11T14:39:01;4.10;69.00
64888;DHT22;51386;53.082;8.816;2022-12-11T14:41:40;4.20;68.80
64888;DHT22;51386;53.082;8.816;2022-12-11T14:44:13;4.20;68.70
64888;DHT22;51386;53.082;8.816;2022-12-11T14:46:45;4.10;68.70
64888;DHT22;51386;53.082;8.816;2022-12-11T14:49:19;4.10;68.80
64888;DHT22;51386;53.082;8.816;2022-12-11T14:51:51;4.00;68.80
64888;DHT22;51386;53.082;8.816;2022-12-11T14:54:28;4.00;69.60
64888;DHT22;51386;53.082;8.816;2022-12-11T14:57:00;4.00;69.70
64888;DHT22;51386;53.082;8.816;2022-12-11T14:59:37;4.00;69.60
64888;DHT22;51386;53.082;8.816;2022-12-11T15:02:22;4.10;69.60
64888;DHT22;51386;53.082;8.816;2022-12-11T15:05:02;4.10;69.40
64888;DHT22;51386;53.082;8.816;2022-12-11T15:07:38;4.10;70.40
64888;DHT22;51386;53.082;8.816;2022-12-11T15:10:26;4.10;69.60
64888;DHT22;51386;53.082;8.816;2022-12-11T15:12:57;4.20;69.80
64888;DHT22;51386;53.082;8.816;2022-12-11T15:15:26;4.20;69.70
64888;DHT22;51386;53.082;8.816;2022-12-11T15:17:54;4.30;69.60
64888;DHT22;51386;53.082;8.816;2022-12-11T15:20:25;4.30;69.70
64888;DHT22;51386;53.082;8.816;2022-12-11T15:22:57;4.40;69.40
64888;DHT22;51386;53.082;8.816;2022-12-11T15:25:29;4.40;68.80
64888;DHT22;51386;53.082;8.816;2022-12-11T15:27:58;4.50;68.90
64888;DHT22;51386;53.082;8.816;2022-12-11T15:30:35;4.50;69.10
64888;DHT22;51386;53.082;8.816;2022-12-11T15:33:18;4.50;69.00
64888;DHT22;51386;53.082;8.816;2022-12-11T15:35:59;4.60;69.10
64888;DHT22;51386;53.082;8.816;2022-12-11T15:38:34;4.60;68.70
64888;DHT22;51386;53.082;8.816;2022-12-11T15:41:05;4.60;68.50
64888;DHT22;51386;53.082;8.816;2022-12-11T15:43:38;4.60;68.00
64888;DHT22;51386;53.082;8.816;2022-12-11T15:46:06;4.60;68.10
64888;DHT22;51386;53.082;8.816;2022-12-11T15:48:33;4.60;68.10
64888;DHT22;51386;53.082;8.816;2022-12-11T15:51:00;4.60;67.90
64888;DHT22;51386;53.082;8.816;2022-12-11T15:53:27;4.50;67.60
64888;DHT22;51386;53.082;8.816;2022-12-11T15:56:09;4.40;67.50
64888;DHT22;51386;53.082;8.816;2022-12-11T15:58:49;4.30;68.50
64888;DHT22;51386;53.082;8.816;2022-12-11T16:01:20;4.30;68.30
64888;DHT22;51386;53.082;8.816;2022-12-11T16:03:47;4.30;68.00
64888;DHT22;51386;53.082;8.816;2022-12-11T16:06:22;4.20;68.20
64888;DHT22;51386;53.082;8.816;2022-12-11T16:08:49;4.10;68.30
64888;DHT22;51386;53.082;8.816;2022-12-11T16:11:18;4.10;68.50
64888;DHT22;51386;53.082;8.816;2022-12-11T16:13:44;4.00;68.70